Time;durP1;ratioP1;P1;durP2;ratioP2;P2;SDS_P1;SDS_P2;PMS_P1;PMS_P2;Temp;Humidity;BMP_temperature;BMP_pressure;BME280_temperature;BME280_humidity;BME280_pressure;Samples;Min_cycle;Max_cycle;Signal;HPM_P1;HPM_P2
2021/01/29 00:00:56;;;;;;;4.73;2.08;;;;;;;-0.76;72.72;97476.41;359368;111;1961930;-70
2021/01/29 00:02:02;;;;;;;5.94;2.23;;;;;;;-0.82;72.26;97475.34;311088;111;2816951;-71
2021/01/29 00:03:12;;;;;;;3.83;1.86;;;;;;;-0.74;72.11;97451.36;357185;113;1962961;-70
2021/01/29 00:04:17;;;;;;;4.36;2.31;;;;;;;-0.79;72.26;97474.95;332317;106;1962031;-70
2021/01/29 00:05:26;;;;;;;8.32;2.90;;;;;;;-0.86;72.92;97471.40;353636;113;1961845;-70
2021/01/29 00:06:32;;;;;;;5.57;2.22;;;;;;;-0.84;73.00;97471.23;360583;111;1962025;-71
2021/01/29 00:07:39;;;;;;;4.57;2.15;;;;;;;-0.86;72.67;97468.75;351730;115;1962900;-71
2021/01/29 00:08:45;;;;;;;4.23;1.91;;;;;;;-0.77;72.34;97469.45;324457;113;2542974;-72
2021/01/29 00:09:57;;;;;;;6.97;2.18;;;;;;;-0.82;72.28;97461.23;350751;115;1961940;-70
2021/01/29 00:11:04;;;;;;;;;;;;;;;-0.73;71.89;97466.23;355318;113;1960966;-71
2021/01/29 00:12:10;;;;;;;3.20;1.57;;;;;;;-0.84;71.86;97472.04;326651;115;2464996;-71
2021/01/29 00:13:16;;;;;;;4.69;2.08;;;;;;;-0.92;72.09;97465.02;350810;115;1964706;-70
2021/01/29 00:14:35;;;;;;;4.87;2.19;;;;;;;-0.79;71.95;97456.40;352431;115;1961938;-70
2021/01/29 00:15:42;;;;;;;4.02;1.86;;;;;;;-0.84;72.33;97460.63;356790;111;1963965;-71
2021/01/29 00:16:53;;;;;;;5.03;2.57;;;;;;;-0.84;72.07;97460.63;354618;112;1961988;-70
2021/01/29 00:18:00;;;;;;;4.64;2.51;;;;;;;-0.89;72.09;97447.92;369310;107;1961990;-70
2021/01/29 00:19:06;;;;;;;4.80;2.66;;;;;;;-0.89;72.22;97466.48;368928;108;1961916;-69
2021/01/29 00:20:26;;;;;;;4.34;2.52;;;;;;;-0.93;71.88;97467.84;344182;110;1963994;-70
2021/01/29 00:21:33;;;;;;;6.09;2.31;;;;;;;-0.89;72.16;97451.39;338276;112;1960753;-71
2021/01/29 00:22:38;;;;;;;6.29;2.43;;;;;;;-0.93;72.27;97451.95;357666;112;1960708;-71
2021/01/29 00:23:44;;;;;;;5.44;2.62;;;;;;;-0.95;72.46;97457.45;351701;112;1960856;-71
2021/01/29 00:24:49;;;;;;;5.44;2.77;;;;;;;-0.91;72.30;97455.23;354668;112;1963951;-71
2021/01/29 00:25:56;;;;;;;8.91;2.49;;;;;;;-0.90;72.67;97460.37;331479;114;2956985;-71
2021/01/29 00:27:01;;;;;;;6.37;2.36;;;;;;;-0.90;71.99;97449.77;349519;114;1961880;-70
2021/01/29 00:28:08;;;;;;;4.48;2.12;;;;;;;-0.84;71.63;97434.94;356139;114;1961963;-71
2021/01/29 00:29:14;;;;;;;5.02;2.46;;;;;;;-0.83;71.06;97446.35;356470;114;1962962;-70
2021/01/29 00:30:21;;;;;;;5.19;2.34;;;;;;;-0.89;71.53;97439.98;339350;112;1965278;-71
2021/01/29 00:31:27;;;;;;;4.52;2.20;;;;;;;-1.08;72.20;97448.54;356296;114;1964001;-70
2021/01/29 00:32:33;;;;;;;4.99;2.29;;;;;;;-1.01;72.39;97444.11;350504;116;1962041;-72
2021/01/29 00:33:39;;;;;;;4.57;2.25;;;;;;;-1.03;72.34;97443.47;320490;114;2566971;-71
2021/01/29 00:34:44;;;;;;;5.77;2.41;;;;;;;-0.98;72.20;97441.94;339591;114;1961925;-71
2021/01/29 00:35:50;;;;;;;3.61;1.94;;;;;;;-1.03;72.03;97438.17;353469;114;1962925;-71
2021/01/29 00:36:57;;;;;;;4.45;2.21;;;;;;;-1.01;72.37;97444.11;353654;114;1962054;-71
2021/01/29 00:38:05;;;;;;;5.26;2.28;;;;;;;-1.12;73.02;97440.94;316444;114;2893033;-71
2021/01/29 00:39:11;;;;;;;6.16;2.72;;;;;;;-1.04;72.47;97441.84;356529;114;1962002;-71
2021/01/29 00:40:18;;;;;;;6.52;2.08;;;;;;;-1.11;72.29;97447.90;340153;114;1962004;-71
2021/01/29 00:41:24;;;;;;;7.16;2.19;;;;;;;-1.07;72.01;97429.79;356052;112;1961962;-70
2021/01/29 00:42:30;;;;;;;5.02;2.11;;;;;;;-0.99;71.36;97440.27;354660;114;1961915;-71
2021/01/29 00:43:37;;;;;;;4.64;1.98;;;;;;;-1.03;71.66;97431.07;313319;115;2697960;-71
2021/01/29 00:44:43;;;;;;;4.45;2.15;;;;;;;-1.06;71.64;97431.42;354554;106;1960702;-71
2021/01/29 00:45:48;;;;;;;4.21;1.98;;;;;;;-1.08;72.45;97430.00;366639;109;1961916;-71
2021/01/29 00:46:54;;;;;;;5.34;2.16;;;;;;;-1.15;71.97;97438.67;359920;112;1961929;-71
2021/01/29 00:48:01;;;;;;;5.74;2.75;;;;;;;-1.13;71.93;97434.02;334821;111;2469340;-71
2021/01/29 00:49:06;;;;;;;4.84;2.22;;;;;;;-1.06;71.90;97427.95;367026;107;1961957;-71
2021/01/29 00:50:14;;;;;;;4.77;2.48;;;;;;;-1.11;72.02;97429.35;373189;107;1961997;-70
2021/01/29 00:51:20;;;;;;;3.77;2.17;;;;;;;-1.11;72.52;97420.59;332973;109;1961884;-71
2021/01/29 00:52:25;;;;;;;4.26;2.01;;;;;;;-1.06;72.17;97422.66;366498;109;1961938;-71
2021/01/29 00:53:30;;;;;;;3.59;2.11;;;;;;;-1.08;72.17;97422.86;368071;107;1963948;-71
2021/01/29 00:54:37;;;;;;;4.84;1.94;;;;;;;-1.07;72.20;97424.48;369076;107;1960778;-71
2021/01/29 00:55:43;;;;;;;5.11;1.97;;;;;;;-1.11;72.39;97429.35;328580;107;2681941;-71
2021/01/29 00:56:52;;;;;;;4.56;2.05;;;;;;;-1.08;72.48;97424.70;374566;106;1964018;-71
2021/01/29 00:57:58;;;;;;;5.09;2.14;;;;;;;-1.03;72.19;97430.23;332859;109;2680984;-71
2021/01/29 00:59:06;;;;;;;4.22;2.29;;;;;;;-0.98;72.18;97427.84;367288;107;1961978;-71
2021/01/29 01:00:29;;;;;;;4.03;1.90;;;;;;;-1.09;72.12;97425.69;365532;107;1961908;-71
2021/01/29 01:01:37;;;;;;;5.28;2.06;;;;;;;-1.04;72.22;97418.00;343444;107;2459924;-71
2021/01/29 01:02:42;;;;;;;3.83;2.02;;;;;;;-1.04;72.44;97433.89;347542;110;1961916;-71
2021/01/29 01:03:48;;;;;;;4.63;1.86;;;;;;;-1.03;71.87;97422.27;366325;109;1961882;-70
2021/01/29 01:04:54;;;;;;;3.73;1.89;;;;;;;-1.06;72.27;97426.13;372684;109;1964013;-71
2021/01/29 01:06:00;;;;;;;2.98;1.66;;;;;;;-1.07;72.01;97419.19;370219;109;1961957;-72
2021/01/29 01:07:09;;;;;;;3.48;1.50;;;;;;;-1.16;72.29;97421.14;367522;109;1962907;-71
2021/01/29 01:08:23;;;;;;;5.20;1.51;;;;;;;-1.10;72.22;97422.22;366078;109;1961929;-70
2021/01/29 01:09:48;;;;;;;4.84;1.68;;;;;;;-1.08;71.83;97427.34;362384;111;1961884;-71
2021/01/29 01:10:56;;;;;;;3.46;1.51;;;;;;;-1.00;71.05;97416.63;368411;107;1965057;-72
2021/01/29 01:12:05;;;;;;;5.34;2.55;;;;;;;-1.12;71.37;97419.74;359943;107;1960820;-71
2021/01/29 01:13:13;;;;;;;5.79;2.66;;;;;;;-1.16;71.55;97417.68;351969;111;1963002;-71
2021/01/29 01:14:20;;;;;;;5.73;2.54;;;;;;;-1.08;71.26;97422.05;347097;115;1961928;-71
2021/01/29 01:15:40;;;;;;;7.90;2.33;;;;;;;-1.05;71.35;97414.53;354804;113;1961967;-72
2021/01/29 01:16:48;;;;;;;4.75;2.21;;;;;;;-1.06;71.24;97418.17;353630;113;1961937;-71
2021/01/29 01:18:08;;;;;;;4.03;2.16;;;;;;;-1.12;71.46;97413.62;357457;113;1962982;-70
2021/01/29 01:19:16;;;;;;;4.24;2.29;;;;;;;-1.14;71.89;97421.78;353552;113;1962014;-71
2021/01/29 01:20:32;;;;;;;4.66;2.61;;;;;;;-1.18;71.90;97420.50;318108;112;2674972;-71
2021/01/29 01:21:37;;;;;;;4.32;1.98;;;;;;;-1.23;71.45;97414.12;334129;113;1961955;-71
2021/01/29 01:22:44;;;;;;;4.35;1.85;;;;;;;-1.18;71.44;97414.39;354175;113;1961958;-71
2021/01/29 01:24:01;;;;;;;3.67;1.48;;;;;;;-1.25;71.11;97424.08;317007;114;2923977;-71
2021/01/29 01:25:07;;;;;;;3.51;1.64;;;;;;;-1.17;70.81;97424.78;325335;117;1962991;-71
2021/01/29 01:26:13;;;;;;;2.96;1.52;;;;;;;-1.17;70.81;97424.78;354707;113;1962115;-71
2021/01/29 01:27:36;;;;;;;2.77;1.49;;;;;;;-1.19;70.56;97429.47;314505;117;1963986;-71
2021/01/29 01:29:00;;;;;;;3.40;1.28;;;;;;;-1.37;71.12;97421.91;323256;117;2395037;-72
2021/01/29 01:30:10;;;;;;;3.91;1.93;;;;;;;-1.40;70.78;97409.05;347399;114;1962947;-71
2021/01/29 01:31:17;;;;;;;2.50;1.35;;;;;;;-1.47;70.48;97418.73;354984;113;1961980;-71
2021/01/29 01:32:24;;;;;;;3.19;1.32;;;;;;;-1.42;70.55;97402.30;334854;113;2355030;-71
2021/01/29 01:33:47;;;;;;;1.98;1.19;;;;;;;-1.37;70.44;97410.51;340610;118;1962967;-71
2021/01/29 01:34:55;;;;;;;3.16;1.52;;;;;;;-1.35;70.21;97403.17;339011;119;1961951;-71
2021/01/29 01:36:03;;;;;;;2.91;1.47;;;;;;;-1.34;69.92;97410.95;343825;118;1963010;-71
2021/01/29 01:37:10;;;;;;;2.36;1.28;;;;;;;-1.34;70.03;97402.19;353418;113;1961905;-71
2021/01/29 01:38:32;;;;;;;3.33;1.43;;;;;;;-1.36;70.02;97402.36;304741;116;2097980;-73
2021/01/29 01:39:39;;;;;;;3.06;1.17;;;;;;;-1.51;69.96;97428.03;347746;116;1962018;-71
2021/01/29 01:40:47;;;;;;;3.50;1.62;;;;;;;-1.56;70.27;97406.61;303965;115;2203463;-71
2021/01/29 01:41:56;;;;;;;2.94;1.23;;;;;;;-1.53;70.29;97414.19;349043;115;1962000;-71
2021/01/29 01:43:03;;;;;;;3.04;1.28;;;;;;;-1.57;70.57;97405.77;347151;113;1961907;-71
2021/01/29 01:44:33;;;;;;;2.73;1.10;;;;;;;-1.55;70.01;97408.25;325230;112;2540025;-71
2021/01/29 01:45:59;;;;;;;3.34;1.75;;;;;;;-1.72;69.78;97398.84;334088;113;1962948;-71
2021/01/29 01:47:08;;;;;;;2.99;1.29;;;;;;;-1.75;70.52;97415.09;338324;113;2387999;-72
2021/01/29 01:48:32;;;;;;;3.92;1.21;;;;;;;-1.74;70.58;97404.34;344575;113;1961899;-72
2021/01/29 01:49:39;;;;;;;3.17;1.45;;;;;;;-1.72;70.26;97404.14;333937;113;1962915;-72
2021/01/29 01:50:54;;;;;;;4.34;1.23;;;;;;;-1.74;70.06;97412.28;307081;113;2859042;-71
2021/01/29 01:52:10;;;;;;;3.87;1.33;;;;;;;-1.86;70.66;97411.91;353666;114;1961948;-70
2021/01/29 01:53:24;;;;;;;4.06;1.22;;;;;;;-1.80;70.67;97402.41;352001;113;1962959;-71
2021/01/29 01:54:36;;;;;;;3.07;1.08;;;;;;;-1.89;70.36;97400.88;306694;113;2884925;-71
2021/01/29 01:55:43;;;;;;;2.71;1.03;;;;;;;-1.81;70.68;97396.30;313661;113;2905962;-71
2021/01/29 01:56:54;;;;;;;3.78;1.21;;;;;;;-1.82;70.36;97392.02;351094;115;1962960;-71
2021/01/29 01:58:02;;;;;;;4.01;1.40;;;;;;;-1.79;70.28;97409.36;315883;116;2525943;-71
2021/01/29 01:59:19;;;;;;;3.09;1.11;;;;;;;-1.71;70.03;97400.51;350475;115;1963000;-71
2021/01/29 02:00:33;;;;;;;2.30;1.32;;;;;;;-1.74;69.00;97414.11;338402;118;1965046;-71
2021/01/29 02:01:48;;;;;;;2.70;1.21;;;;;;;-1.75;69.04;97409.80;352907;113;1962007;-71
2021/01/29 02:03:08;;;;;;;4.86;1.07;;;;;;;-1.77;69.48;97404.71;300742;114;2236923;-71
2021/01/29 02:04:36;;;;;;;2.67;1.14;;;;;;;-1.82;68.65;97412.38;356616;113;1964013;-71
2021/01/29 02:05:50;;;;;;;3.37;1.35;;;;;;;-1.85;68.97;97397.69;347783;115;1962967;-71
2021/01/29 02:07:17;;;;;;;4.05;1.93;;;;;;;-2.01;69.44;97401.33;357190;112;1965928;-71
2021/01/29 02:08:37;;;;;;;3.56;1.27;;;;;;;-2.06;69.49;97408.17;336177;118;1964099;-72
2021/01/29 02:09:49;;;;;;;4.43;1.45;;;;;;;-2.10;68.82;97398.95;328202;121;1962066;-72
2021/01/29 02:10:55;;;;;;;3.31;1.43;;;;;;;-2.18;68.85;97412.25;353718;113;1962024;-71
2021/01/29 02:12:03;;;;;;;4.29;1.68;;;;;;;-2.36;69.31;97394.89;353088;113;1961897;-71
2021/01/29 02:13:19;;;;;;;3.07;1.42;;;;;;;-2.42;69.70;97410.66;314257;105;2226942;-71
2021/01/29 02:14:27;;;;;;;3.40;1.63;;;;;;;-2.49;69.53;97398.17;370191;108;1962048;-71
2021/01/29 02:15:42;;;;;;;4.27;2.52;;;;;;;-2.59;69.43;97389.67;333634;108;2935933;-70
2021/01/29 02:16:52;;;;;;;4.25;1.84;;;;;;;-2.60;69.43;97395.94;362662;106;1963887;-71
2021/01/29 02:18:12;;;;;;;4.27;1.72;;;;;;;-2.68;69.73;97403.94;373507;108;1962958;-71
2021/01/29 02:19:51;;;;;;;4.54;2.08;;;;;;;-2.74;69.40;97391.44;370771;108;1962003;-71
2021/01/29 02:21:12;;;;;;;3.38;2.17;;;;;;;-2.85;68.54;97397.97;350661;113;1961944;-70
2021/01/29 02:22:49;;;;;;;6.30;1.90;;;;;;;-2.99;69.17;97385.51;329273;120;1964051;-70
2021/01/29 02:24:32;;;;;;;4.67;2.06;;;;;;;-3.02;69.54;97383.22;363540;105;2237979;-71
2021/01/29 02:26:03;;;;;;;4.86;2.22;;;;;;;-3.11;69.83;97383.28;369995;108;1962030;-72
2021/01/29 02:27:29;;;;;;;4.94;2.37;;;;;;;-3.18;70.03;97384.16;376971;107;1961927;-71
2021/01/29 02:28:56;;;;;;;4.21;1.69;;;;;;;-3.23;70.15;97382.03;354691;107;2332955;-71
2021/01/29 02:30:26;;;;;;;5.96;2.17;;;;;;;-3.31;69.88;97397.92;370163;109;1962980;-71
2021/01/29 02:31:54;;;;;;;8.41;3.26;;;;;;;-3.30;70.31;97383.75;376967;107;1962898;-71
2021/01/29 02:33:09;;;;;;;5.88;2.12;;;;;;;-3.20;69.92;97370.30;363561;109;1962023;-71
2021/01/29 02:34:40;;;;;;;3.39;1.46;;;;;;;-3.19;68.99;97414.20;372302;108;1962966;-71
2021/01/29 02:36:08;;;;;;;4.24;1.98;;;;;;;-3.13;69.48;97387.09;340382;109;2213959;-71
2021/01/29 02:37:37;;;;;;;4.02;1.68;;;;;;;-3.17;69.58;97376.07;373194;105;1965246;-70
2021/01/29 02:39:00;;;;;;;8.69;3.65;;;;;;;-3.17;69.56;97375.26;367106;108;1963997;-71
2021/01/29 02:40:13;;;;;;;4.45;2.42;;;;;;;-3.21;69.58;97387.16;331475;109;2090509;-70
2021/01/29 02:41:41;;;;;;;4.08;1.89;;;;;;;-3.28;69.69;97388.84;326897;108;2761007;-71
2021/01/29 02:43:00;;;;;;;4.43;1.73;;;;;;;-3.26;69.57;97386.84;363337;110;1961936;-71
2021/01/29 02:44:30;;;;;;;5.21;1.67;;;;;;;-3.31;69.41;97382.08;347093;108;2864924;-71
2021/01/29 02:45:59;;;;;;;4.53;1.82;;;;;;;-3.37;69.70;97388.07;365459;108;1962024;-71
2021/01/29 02:47:22;;;;;;;5.86;2.04;;;;;;;-3.39;70.01;97371.58;348862;109;1964992;-71
2021/01/29 02:48:55;;;;;;;3.64;1.97;;;;;;;-3.46;70.32;97371.47;351565;113;1963000;-71
2021/01/29 02:50:32;;;;;;;4.32;1.63;;;;;;;-3.48;70.25;97372.63;373429;106;1962852;-71
2021/01/29 02:51:58;;;;;;;2.70;1.14;;;;;;;-3.48;70.65;97380.55;337126;108;1997820;-71
2021/01/29 02:53:36;;;;;;;3.37;1.65;;;;;;;-3.38;70.07;97374.05;325099;108;2809918;-71
2021/01/29 02:54:59;;;;;;;3.72;1.24;;;;;;;-3.27;69.82;97383.39;310028;116;2730979;-71
2021/01/29 02:56:22;;;;;;;3.32;1.47;;;;;;;-3.20;69.64;97379.06;303675;116;2864069;-71
2021/01/29 02:57:45;;;;;;;5.47;1.32;;;;;;;-3.18;69.54;97374.41;368641;105;1961999;-71
2021/01/29 02:59:15;;;;;;;2.33;1.38;;;;;;;-3.17;69.77;97370.79;352954;113;1963005;-71
2021/01/29 03:00:48;;;;;;;2.52;1.39;;;;;;;-3.22;69.40;97380.23;353431;107;1962965;-72
2021/01/29 03:02:02;;;;;;;3.48;1.73;;;;;;;-3.37;69.40;97366.95;374500;108;1961975;-71
2021/01/29 03:03:22;;;;;;;3.06;1.48;;;;;;;-3.49;69.72;97371.82;334413;106;2058639;-71
2021/01/29 03:04:33;;;;;;;3.24;1.54;;;;;;;-3.65;69.73;97362.17;364355;111;1962022;-70
2021/01/29 03:05:53;;;;;;;3.46;1.82;;;;;;;-3.72;69.89;97355.12;373605;106;1961953;-71
2021/01/29 03:07:20;;;;;;;3.85;1.97;;;;;;;-3.82;69.93;97371.14;366276;111;1963936;-71
2021/01/29 03:08:35;;;;;;;5.25;2.57;;;;;;;-3.95;70.20;97358.49;353665;113;1962083;-71
2021/01/29 03:10:11;;;;;;;6.67;2.61;;;;;;;-4.01;70.29;97353.91;329646;114;2229951;-71
2021/01/29 03:11:39;;;;;;;5.02;2.11;;;;;;;-4.09;71.10;97353.95;346164;116;1963957;-71
2021/01/29 03:13:07;;;;;;;5.73;2.08;;;;;;;-4.16;71.35;97351.16;329828;116;1961939;-71
2021/01/29 03:14:37;;;;;;;4.09;1.99;;;;;;;-4.16;71.58;97351.16;346871;116;1962013;-71
2021/01/29 03:16:05;;;;;;;4.98;1.92;;;;;;;-4.11;71.90;97355.92;330165;116;2232955;-70
2021/01/29 03:17:31;;;;;;;3.38;1.75;;;;;;;-4.04;71.74;97351.63;294893;123;2715017;-71
2021/01/29 03:19:22;;;;;;;3.94;1.90;;;;;;;-4.00;71.70;97337.09;333150;116;1962896;-71
2021/01/29 03:20:53;;;;;;;4.23;1.58;;;;;;;-3.87;71.62;97337.36;348704;116;1960882;-71
2021/01/29 03:22:21;;;;;;;3.56;1.37;;;;;;;-3.78;71.50;97341.62;351092;116;1962948;-71
2021/01/29 03:23:41;;;;;;;3.86;1.61;;;;;;;-3.67;71.40;97348.32;342745;118;1962009;-71
2021/01/29 03:25:10;;;;;;;3.82;1.69;;;;;;;-3.60;71.34;97343.16;341721;114;1961940;-71
2021/01/29 03:26:41;;;;;;;3.69;1.57;;;;;;;-3.53;71.01;97344.12;379217;105;1961976;-70
2021/01/29 03:30:41;;;;;;;2.68;1.37;;;;;;;-3.26;69.84;97350.70;381339;108;1985926;-72
2021/01/29 03:32:03;;;;;;;2.19;1.07;;;;;;;-3.34;70.29;97341.02;334323;113;2202814;-71
2021/01/29 03:33:30;;;;;;;4.70;1.95;;;;;;;-3.26;69.71;97339.33;358779;112;1960902;-71
2021/01/29 03:35:07;;;;;;;5.53;1.84;;;;;;;-3.29;69.83;97331.77;326847;113;1963013;-71
2021/01/29 03:36:37;;;;;;;3.69;1.69;;;;;;;-3.33;69.58;97339.22;327767;113;2872997;-70
2021/01/29 03:38:22;;;;;;;5.44;1.89;;;;;;;-3.34;69.42;97340.20;350584;116;1961890;-71
2021/01/29 03:39:46;;;;;;;5.93;3.35;;;;;;;-3.45;69.26;97332.69;330409;114;2448888;-71
2021/01/29 03:41:29;;;;;;;4.68;2.05;;;;;;;-3.57;69.26;97337.56;319064;114;2656969;-71
2021/01/29 03:43:06;;;;;;;4.66;1.81;;;;;;;-3.69;69.49;97339.75;351622;114;1961917;-71
2021/01/29 03:44:43;;;;;;;3.44;1.83;;;;;;;-3.83;69.59;97343.13;355456;114;1963919;-71
2021/01/29 03:46:23;;;;;;;5.91;2.82;;;;;;;-4.02;70.46;97336.46;351698;114;1962901;-70
2021/01/29 03:48:14;;;;;;;4.82;1.96;;;;;;;-4.09;70.48;97336.31;320467;114;1979616;-71
2021/01/29 03:50:10;;;;;;;6.64;2.21;;;;;;;-4.20;71.10;97334.86;350420;116;1965009;-71
2021/01/29 03:51:58;;;;;;;4.49;1.91;;;;;;;-4.17;71.08;97341.61;354266;113;1962888;-70
2021/01/29 03:53:37;;;;;;;4.63;1.98;;;;;;;-4.06;71.09;97341.23;353682;114;1961994;-71
2021/01/29 03:55:20;;;;;;;4.82;2.55;;;;;;;-3.98;70.89;97330.66;351283;114;1961949;-71
2021/01/29 03:56:53;;;;;;;4.60;2.03;;;;;;;-3.93;70.92;97338.05;336774;116;1961916;-71
2021/01/29 03:58:36;;;;;;;5.01;2.14;;;;;;;-3.85;70.63;97339.84;314711;114;2679009;-71
2021/01/29 04:00:32;;;;;;;4.73;2.44;;;;;;;-3.83;70.68;97333.40;355495;114;1961959;-72
2021/01/29 04:02:24;;;;;;;4.60;2.02;;;;;;;-3.79;70.57;97345.23;347425;114;1962806;-72
2021/01/29 04:03:54;;;;;;;4.44;1.92;;;;;;;-3.71;70.42;97343.56;351062;114;1964023;-71
2021/01/29 04:05:25;;;;;;;5.71;2.43;;;;;;;-3.60;69.98;97346.64;356696;114;1962987;-70
2021/01/29 04:07:10;;;;;;;5.95;2.36;;;;;;;-3.54;69.54;97345.94;309043;114;2210012;-71
2021/01/29 04:08:46;;;;;;;6.61;2.67;;;;;;;-3.48;69.30;97335.69;309165;114;2234532;-71
2021/01/29 04:10:15;;;;;;;6.47;2.97;;;;;;;-3.53;69.27;97330.92;347560;116;1962004;-72
2021/01/29 04:11:48;;;;;;;5.22;2.66;;;;;;;-3.63;69.26;97343.51;354395;114;1961971;-71
2021/01/29 04:13:17;;;;;;;6.16;2.49;;;;;;;-3.77;69.53;97337.97;351689;114;1961984;-71
2021/01/29 04:14:43;;;;;;;7.19;2.75;;;;;;;-3.90;69.77;97331.62;350724;115;1963008;-72
2021/01/29 04:15:51;;;;;;;6.05;3.12;;;;;;;-4.04;70.35;97331.34;353538;114;1962001;-71
2021/01/29 04:17:01;;;;;;;7.52;3.01;;;;;;;-4.17;70.76;97327.62;354225;114;1965298;-71
2021/01/29 04:18:40;;;;;;;8.84;2.81;;;;;;;-4.31;71.32;97323.84;354374;114;1963094;-71
2021/01/29 04:19:48;;;;;;;7.47;3.37;;;;;;;-4.35;71.27;97318.11;355718;114;1964901;-71
2021/01/29 04:20:57;;;;;;;7.46;3.05;;;;;;;-4.35;71.30;97322.56;353819;114;1962936;-71
2021/01/29 04:22:13;;;;;;;6.99;3.22;;;;;;;-4.27;71.32;97325.16;355848;114;1962020;-71
2021/01/29 04:23:22;;;;;;;8.53;3.86;;;;;;;-4.19;71.21;97325.14;351514;114;1963992;-72
2021/01/29 04:24:31;;;;;;;9.91;4.09;;;;;;;-4.36;71.08;97281.40;351980;114;1961922;-70
2021/01/29 04:25:41;;;;;;;8.03;3.13;;;;;;;-4.12;71.25;97318.20;341936;118;1961953;-71
2021/01/29 04:27:06;;;;;;;9.93;4.36;;;;;;;-4.04;71.08;97317.34;346708;117;1964018;-71
2021/01/29 04:28:18;;;;;;;5.54;2.84;;;;;;;-4.01;71.17;97317.81;344918;117;1961892;-71
2021/01/29 04:29:39;;;;;;;9.89;4.16;;;;;;;-3.98;71.28;97324.56;316121;117;2579056;-70
2021/01/29 04:30:49;;;;;;;7.52;3.66;;;;;;;-3.89;70.82;97313.00;355369;113;1961971;-72
2021/01/29 04:31:58;;;;;;;7.16;3.28;;;;;;;-3.86;70.72;97312.64;356850;113;1961976;-71
2021/01/29 04:33:10;;;;;;;7.37;3.02;;;;;;;-3.78;70.51;97314.42;346142;113;1965843;-71
2021/01/29 04:34:20;;;;;;;7.38;3.54;;;;;;;-3.78;70.48;97317.06;354032;113;1961982;-71
2021/01/29 04:35:27;;;;;;;10.66;4.50;;;;;;;-3.72;70.10;97328.73;357714;113;1961995;-72
2021/01/29 04:36:37;;;;;;;9.44;4.17;;;;;;;-3.69;69.96;97321.28;351989;115;1961932;-71
2021/01/29 04:37:47;;;;;;;8.69;4.24;;;;;;;-3.64;70.07;97315.50;351963;115;1961994;-70
2021/01/29 04:39:13;;;;;;;7.62;3.16;;;;;;;-3.64;69.70;97308.39;353991;113;1962048;-71
2021/01/29 04:40:26;;;;;;;10.51;4.31;;;;;;;-3.64;69.88;97318.13;324231;113;2618029;-71
2021/01/29 04:41:58;;;;;;;11.16;3.82;;;;;;;-3.64;69.41;97323.41;354951;113;1961900;-71
2021/01/29 04:43:07;;;;;;;9.57;4.01;;;;;;;-3.62;69.17;97334.62;320965;113;2213035;-71
2021/01/29 04:44:39;;;;;;;8.82;4.17;;;;;;;-3.64;68.65;97333.96;337256;109;2394821;-71
2021/01/29 04:46:01;;;;;;;7.12;3.88;;;;;;;-3.72;68.64;97329.55;356835;112;1965332;-71
2021/01/29 04:47:19;;;;;;;9.11;4.36;;;;;;;-3.86;68.87;97317.92;307590;116;2163420;-71
2021/01/29 04:48:46;;;;;;;8.22;4.71;;;;;;;-3.95;69.13;97323.39;335275;112;2387113;-71
2021/01/29 04:49:56;;;;;;;9.34;5.28;;;;;;;-4.05;69.01;97311.25;353133;115;1961931;-71
2021/01/29 04:51:38;;;;;;;14.02;5.81;;;;;;;-4.11;69.19;97308.47;351768;115;1961931;-71
2021/01/29 04:53:08;;;;;;;10.50;5.24;;;;;;;-4.20;69.60;97307.69;349727;115;1964941;-71
2021/01/29 04:54:44;;;;;;;11.85;5.82;;;;;;;-4.25;69.15;97310.83;338927;113;1962013;-70
2021/01/29 04:56:02;;;;;;;11.76;6.39;;;;;;;-4.35;69.83;97318.11;353362;115;1962015;-70
2021/01/29 04:57:28;;;;;;;13.81;6.92;;;;;;;-4.40;69.78;97317.78;352575;113;1961933;-71
2021/01/29 04:58:38;;;;;;;13.13;6.18;;;;;;;-4.47;70.20;97314.20;307372;115;2878942;-74
2021/01/29 05:00:31;;;;;;;12.60;6.34;;;;;;;-4.52;70.26;97314.70;291915;120;2150246;-72
2021/01/29 05:02:03;;;;;;;11.18;5.84;;;;;;;-4.55;70.95;97316.83;345866;115;1961876;-71
2021/01/29 05:03:53;;;;;;;12.01;6.08;;;;;;;-4.51;70.89;97303.16;347535;115;1964025;-71
2021/01/29 05:05:39;;;;;;;13.98;6.93;;;;;;;-4.42;70.55;97307.44;307060;115;2158757;-71
2021/01/29 05:06:49;;;;;;;12.12;6.01;;;;;;;-4.31;70.78;97318.58;304339;115;2199684;-71
2021/01/29 05:08:43;;;;;;;12.34;6.60;;;;;;;-4.17;70.08;97307.34;358053;108;1959701;-71
2021/01/29 05:10:20;;;;;;;11.87;6.03;;;;;;;-4.04;69.82;97290.98;349260;115;1961961;-71
2021/01/29 05:12:05;;;;;;;11.41;5.10;;;;;;;-3.90;69.71;97298.15;345854;117;1961921;-71
2021/01/29 05:13:17;;;;;;;13.89;6.87;;;;;;;-3.77;69.46;97300.23;345495;117;1962001;-71
2021/01/29 05:14:28;;;;;;;17.97;7.33;;;;;;;-3.67;69.00;97305.30;326234;116;2221945;-71
2021/01/29 05:15:55;;;;;;;11.91;6.89;;;;;;;-3.63;68.47;97302.11;344362;117;1961879;-71
2021/01/29 05:17:17;;;;;;;13.45;6.05;;;;;;;-3.66;68.86;97301.65;322802;115;1961952;-71
2021/01/29 05:18:43;;;;;;;12.32;6.87;;;;;;;-3.71;68.24;97306.62;347149;116;1963983;-71
2021/01/29 05:19:55;;;;;;;14.89;7.36;;;;;;;-3.76;68.28;97309.77;297080;116;2914059;-71
2021/01/29 05:21:41;;;;;;;13.50;6.88;;;;;;;-3.79;68.30;97318.85;347353;115;1962014;-71
2021/01/29 05:22:54;;;;;;;12.66;7.17;;;;;;;-3.88;68.25;97309.35;328877;116;2388026;-71
2021/01/29 05:24:15;;;;;;;;;;;;;;;-3.95;68.66;97303.12;355194;115;1963990;-71
2021/01/29 05:25:51;;;;;;;14.18;6.78;;;;;;;-3.99;68.50;97307.92;315409;113;2117278;-73
2021/01/29 05:27:03;;;;;;;14.17;6.76;;;;;;;-4.01;68.62;97309.91;351670;113;1960853;-72
2021/01/29 05:28:32;;;;;;;15.48;8.14;;;;;;;-3.99;68.31;97307.11;329460;113;2468868;-72
2021/01/29 05:29:53;;;;;;;15.16;7.72;;;;;;;-4.06;68.87;97295.59;316982;113;2648907;-71
2021/01/29 05:31:22;;;;;;;16.02;8.64;;;;;;;-4.06;69.02;97296.41;353410;113;1960771;-72
2021/01/29 05:32:34;;;;;;;16.89;8.12;;;;;;;-4.09;69.49;97295.94;353683;113;1960690;-71
2021/01/29 05:34:07;;;;;;;14.16;7.79;;;;;;;-4.06;69.19;97290.33;310809;113;2860756;-71
2021/01/29 05:35:25;;;;;;;13.14;7.37;;;;;;;-4.06;69.54;97296.41;352071;114;1961959;-72
2021/01/29 05:36:40;;;;;;;13.51;7.11;;;;;;;-4.05;69.56;97289.31;356680;114;1960737;-72
2021/01/29 05:37:50;;;;;;;15.86;7.46;;;;;;;-4.06;69.49;97293.77;352254;114;1960684;-72
2021/01/29 05:40:59;;;;;;;17.63;9.39;;;;;;;-3.92;69.66;97292.22;347495;106;2677962;-74
2021/01/29 05:42:37;;;;;;;18.83;9.79;;;;;;;-4.04;70.19;97289.16;357792;110;2902966;-74
2021/01/29 05:44:21;;;;;;;14.77;8.56;;;;;;;-4.01;69.90;97287.99;354150;108;1959792;-71
2021/01/29 05:45:51;;;;;;;15.06;8.08;;;;;;;-3.99;70.01;97281.55;348061;108;1960927;-72
2021/01/29 05:47:18;;;;;;;13.56;6.99;;;;;;;-3.92;69.97;97286.13;334223;121;1962017;-73
2021/01/29 05:48:27;;;;;;;12.62;7.99;;;;;;;-3.82;69.58;97278.83;335459;119;1964007;-73
2021/01/29 05:49:55;;;;;;;18.31;8.91;;;;;;;-3.75;69.60;97282.42;333014;119;1961945;-72
2021/01/29 05:51:04;;;;;;;17.33;9.14;;;;;;;-3.68;69.42;97274.61;293389;124;2219951;-73
2021/01/29 05:52:28;;;;;;;15.74;9.18;;;;;;;-3.63;69.23;97281.00;312359;124;2327035;-72
2021/01/29 05:54:04;;;;;;;14.63;8.54;;;;;;;-3.61;69.22;97270.28;295259;126;2219885;-73
2021/01/29 05:55:13;;;;;;;20.12;9.22;;;;;;;-3.60;68.89;97279.83;325702;125;1961999;-73
2021/01/29 05:56:22;;;;;;;15.74;9.41;;;;;;;-3.63;69.09;97288.92;323220;124;1961923;-73
2021/01/29 05:57:35;;;;;;;19.81;9.64;;;;;;;-3.64;68.99;97276.73;321913;125;1962048;-72
2021/01/29 05:59:02;;;;;;;17.45;9.91;;;;;;;-3.64;69.09;97274.09;312967;123;2258979;-72
2021/01/29 06:00:12;;;;;;;16.25;7.77;;;;;;;-3.65;69.02;97267.19;324585;123;1962032;-72
2021/01/29 06:01:41;;;;;;;15.26;8.74;;;;;;;-3.66;69.15;97262.89;322997;125;1962073;-72
2021/01/29 06:03:00;;;;;;;15.96;9.07;;;;;;;-3.65;69.05;97272.47;324358;125;1962061;-72
2021/01/29 06:04:27;;;;;;;20.61;10.59;;;;;;;-3.68;69.63;97261.42;323933;123;1961979;-72
2021/01/29 06:06:00;;;;;;;18.29;9.10;;;;;;;-3.69;69.50;97263.24;302961;123;1961964;-72
2021/01/29 06:07:27;;;;;;;16.74;10.16;;;;;;;-3.70;69.94;97258.16;313770;123;2431017;-73
2021/01/29 06:08:52;;;;;;;19.86;10.59;;;;;;;-3.72;70.02;97266.23;321581;123;1961966;-72
2021/01/29 06:10:04;;;;;;;22.12;10.72;;;;;;;-3.72;70.09;97257.51;324879;125;1961993;-72